sensor_id;sensor_type;location;lat;lon;timestamp;pressure;altitude;pressure_sealevel;temperature;humidity
51249;BME280;39642;47.556;18.728;2023-05-07T00:01:57;99633.13;;;20.76;50.25
51249;BME280;39642;47.556;18.728;2023-05-07T00:04:22;99632.28;;;20.75;50.23
51249;BME280;39642;47.556;18.728;2023-05-07T00:06:48;99642.00;;;20.75;50.18
51249;BME280;39642;47.556;18.728;2023-05-07T00:09:14;99646.47;;;20.74;50.15
51249;BME280;39642;47.556;18.728;2023-05-07T00:11:40;99646.47;;;20.74;50.19
51249;BME280;39642;47.556;18.728;2023-05-07T00:14:06;99645.63;;;20.74;50.17
51249;BME280;39642;47.556;18.728;2023-05-07T00:16:32;99637.69;;;20.74;50.13
51249;BME280;39642;47.556;18.728;2023-05-07T00:18:58;99643.81;;;20.74;50.15
51249;BME280;39642;47.556;18.728;2023-05-07T00:21:24;99634.16;;;20.73;50.13
51249;BME280;39642;47.556;18.728;2023-05-07T00:23:53;99631.50;;;20.73;50.01
51249;BME280;39642;47.556;18.728;2023-05-07T00:26:19;99627.19;;;20.72;50.16
51249;BME280;39642;47.556;18.728;2023-05-07T00:28:45;99628.88;;;20.73;50.19
51249;BME280;39642;47.556;18.728;2023-05-07T00:31:11;99630.66;;;20.73;50.13
51249;BME280;39642;47.556;18.728;2023-05-07T00:33:37;99633.31;;;20.73;50.18
51249;BME280;39642;47.556;18.728;2023-05-07T00:36:04;99635.97;;;20.73;50.24
51249;BME280;39642;47.556;18.728;2023-05-07T00:38:29;99642.22;;;20.72;50.09
51249;BME280;39642;47.556;18.728;2023-05-07T00:40:55;99629.81;;;20.72;50.13
51249;BME280;39642;47.556;18.728;2023-05-07T00:43:21;99643.06;;;20.72;50.12
51249;BME280;39642;47.556;18.728;2023-05-07T00:45:47;99649.28;;;20.71;50.14
51249;BME280;39642;47.556;18.728;2023-05-07T00:48:14;99645.69;;;20.72;50.11
51249;BME280;39642;47.556;18.728;2023-05-07T00:50:40;99643.06;;;20.72;50.12
51249;BME280;39642;47.556;18.728;2023-05-07T00:53:06;99636.03;;;20.71;50.14
51249;BME280;39642;47.556;18.728;2023-05-07T00:55:32;99638.69;;;20.71;50.06
51249;BME280;39642;47.556;18.728;2023-05-07T00:57:58;99640.50;;;20.71;50.13
51249;BME280;39642;47.556;18.728;2023-05-07T01:00:24;99643.97;;;20.71;50.10
51249;BME280;39642;47.556;18.728;2023-05-07T01:02:50;99643.13;;;20.71;50.13
51249;BME280;39642;47.556;18.728;2023-05-07T01:05:17;99640.50;;;20.71;50.15
51249;BME280;39642;47.556;18.728;2023-05-07T01:07:45;99654.56;;;20.71;50.15
51249;BME280;39642;47.556;18.728;2023-05-07T01:10:11;99648.44;;;20.71;50.10
51249;BME280;39642;47.556;18.728;2023-05-07T01:12:38;99644.94;;;20.70;50.08
51249;BME280;39642;47.556;18.728;2023-05-07T01:15:08;99644.94;;;20.70;50.12
51249;BME280;39642;47.556;18.728;2023-05-07T01:17:36;99644.94;;;20.70;50.22
51249;BME280;39642;47.556;18.728;2023-05-07T01:20:02;99638.81;;;20.70;50.11
51249;BME280;39642;47.556;18.728;2023-05-07T01:22:38;99644.94;;;20.70;50.06
51249;BME280;39642;47.556;18.728;2023-05-07T01:25:05;99644.94;;;20.70;50.02
51249;BME280;39642;47.556;18.728;2023-05-07T01:27:31;99637.84;;;20.71;50.03
51249;BME280;39642;47.556;18.728;2023-05-07T01:29:59;99641.44;;;20.70;50.11
51249;BME280;39642;47.556;18.728;2023-05-07T01:32:48;99635.31;;;20.69;49.98
51249;BME280;39642;47.556;18.728;2023-05-07T01:35:24;99637.00;;;20.70;49.95
51249;BME280;39642;47.556;18.728;2023-05-07T01:37:50;99640.59;;;20.69;50.01
51249;BME280;39642;47.556;18.728;2023-05-07T01:40:16;99650.31;;;20.69;50.00
51249;BME280;39642;47.556;18.728;2023-05-07T01:42:43;99648.53;;;20.69;50.04
51249;BME280;39642;47.556;18.728;2023-05-07T01:45:09;99649.47;;;20.68;49.99
51249;BME280;39642;47.556;18.728;2023-05-07T01:47:36;99652.97;;;20.69;50.03
51249;BME280;39642;47.556;18.728;2023-05-07T01:50:06;99646.81;;;20.68;50.01
51249;BME280;39642;47.556;18.728;2023-05-07T01:52:34;99646.81;;;20.68;50.02
51249;BME280;39642;47.556;18.728;2023-05-07T01:55:00;99654.75;;;20.68;50.02
51249;BME280;39642;47.556;18.728;2023-05-07T01:57:25;99657.41;;;20.68;50.06
51249;BME280;39642;47.556;18.728;2023-05-07T01:59:51;99655.72;;;20.67;50.07
51249;BME280;39642;47.556;18.728;2023-05-07T02:02:17;99653.06;;;20.67;50.05
51249;BME280;39642;47.556;18.728;2023-05-07T02:04:43;99647.78;;;20.67;50.06
51249;BME280;39642;47.556;18.728;2023-05-07T02:07:09;99654.84;;;20.67;50.03
51249;BME280;39642;47.556;18.728;2023-05-07T02:09:35;99642.59;;;20.66;50.01
51249;BME280;39642;47.556;18.728;2023-05-07T02:12:01;99641.72;;;20.65;49.93
51249;BME280;39642;47.556;18.728;2023-05-07T02:14:27;99646.06;;;20.66;50.00
51249;BME280;39642;47.556;18.728;2023-05-07T02:16:53;99644.38;;;20.65;50.02
51249;BME280;39642;47.556;18.728;2023-05-07T02:19:19;99643.44;;;20.66;49.86
51249;BME280;39642;47.556;18.728;2023-05-07T02:21:47;99644.38;;;20.65;49.92
51249;BME280;39642;47.556;18.728;2023-05-07T02:24:13;99640.84;;;20.65;49.89
51249;BME280;39642;47.556;18.728;2023-05-07T02:26:40;99637.38;;;20.64;49.91
51249;BME280;39642;47.556;18.728;2023-05-07T02:29:06;99634.66;;;20.66;49.78
51249;BME280;39642;47.556;18.728;2023-05-07T02:31:32;99643.50;;;20.65;49.81
51249;BME280;39642;47.556;18.728;2023-05-07T02:34:00;99631.16;;;20.65;49.86
51249;BME280;39642;47.556;18.728;2023-05-07T02:36:26;99632.94;;;20.65;49.81
51249;BME280;39642;47.556;18.728;2023-05-07T02:38:52;99633.81;;;20.65;49.77
51249;BME280;39642;47.556;18.728;2023-05-07T02:41:18;99631.16;;;20.65;49.79
51249;BME280;39642;47.556;18.728;2023-05-07T02:43:44;99632.09;;;20.64;49.73
51249;BME280;39642;47.556;18.728;2023-05-07T02:46:10;99633.81;;;20.65;49.73
51249;BME280;39642;47.556;18.728;2023-05-07T02:48:36;99632.94;;;20.65;49.64
51249;BME280;39642;47.556;18.728;2023-05-07T02:51:03;99634.72;;;20.64;49.67
51249;BME280;39642;47.556;18.728;2023-05-07T02:53:29;99628.59;;;20.64;49.59
51249;BME280;39642;47.556;18.728;2023-05-07T02:55:56;99630.41;;;20.63;49.57
51249;BME280;39642;47.556;18.728;2023-05-07T02:58:22;99630.41;;;20.63;49.51
51249;BME280;39642;47.556;18.728;2023-05-07T03:00:48;99629.56;;;20.63;49.44
51249;BME280;39642;47.556;18.728;2023-05-07T03:03:14;99625.09;;;20.63;49.49
51249;BME280;39642;47.556;18.728;2023-05-07T03:05:41;99626.91;;;20.63;49.43
51249;BME280;39642;47.556;18.728;2023-05-07T03:08:07;99631.31;;;20.62;49.42
51249;BME280;39642;47.556;18.728;2023-05-07T03:10:33;99633.03;;;20.63;49.41
51249;BME280;39642;47.556;18.728;2023-05-07T03:13:00;99631.31;;;20.62;49.38
51249;BME280;39642;47.556;18.728;2023-05-07T03:15:26;99630.47;;;20.62;49.38
51249;BME280;39642;47.556;18.728;2023-05-07T03:17:52;99632.19;;;20.63;49.37
51249;BME280;39642;47.556;18.728;2023-05-07T03:20:18;99641.91;;;20.62;49.32
51249;BME280;39642;47.556;18.728;2023-05-07T03:22:43;99644.56;;;20.62;49.32
51249;BME280;39642;47.556;18.728;2023-05-07T03:25:10;99636.63;;;20.62;49.27
51249;BME280;39642;47.556;18.728;2023-05-07T03:27:36;99633.22;;;20.60;49.26
51249;BME280;39642;47.556;18.728;2023-05-07T03:30:02;99632.28;;;20.61;49.26
51249;BME280;39642;47.556;18.728;2023-05-07T03:32:28;99637.56;;;20.61;49.20
51249;BME280;39642;47.556;18.728;2023-05-07T03:34:54;99635.84;;;20.60;49.16
51249;BME280;39642;47.556;18.728;2023-05-07T03:37:20;99634.09;;;20.61;49.15
51249;BME280;39642;47.556;18.728;2023-05-07T03:39:47;99632.38;;;20.59;49.16
51249;BME280;39642;47.556;18.728;2023-05-07T03:42:13;99638.50;;;20.60;49.14
51249;BME280;39642;47.556;18.728;2023-05-07T03:44:39;99653.44;;;20.61;49.09
51249;BME280;39642;47.556;18.728;2023-05-07T03:47:05;99651.72;;;20.60;49.07
51249;BME280;39642;47.556;18.728;2023-05-07T03:49:31;99645.59;;;20.59;49.04
51249;BME280;39642;47.556;18.728;2023-05-07T03:51:57;99651.72;;;20.60;49.00
51249;BME280;39642;47.556;18.728;2023-05-07T03:54:23;99651.72;;;20.60;49.03
51249;BME280;39642;47.556;18.728;2023-05-07T03:56:49;99650.03;;;20.59;49.02
51249;BME280;39642;47.556;18.728;2023-05-07T03:59:15;99650.87;;;20.59;49.01
51249;BME280;39642;47.556;18.728;2023-05-07T04:01:40;99660.63;;;20.59;49.05
51249;BME280;39642;47.556;18.728;2023-05-07T04:04:06;99661.47;;;20.59;49.06
51249;BME280;39642;47.556;18.728;2023-05-07T04:06:32;99663.28;;;20.59;49.04
51249;BME280;39642;47.556;18.728;2023-05-07T04:08:58;99656.16;;;20.59;48.99
51249;BME280;39642;47.556;18.728;2023-05-07T04:11:24;99655.31;;;20.59;48.98
51249;BME280;39642;47.556;18.728;2023-05-07T04:13:50;99663.19;;;20.61;48.99
51249;BME280;39642;47.556;18.728;2023-05-07T04:16:16;99656.16;;;20.59;48.96
51249;BME280;39642;47.556;18.728;2023-05-07T04:18:42;99660.63;;;20.59;48.99
51249;BME280;39642;47.556;18.728;2023-05-07T04:21:18;99653.53;;;20.59;48.94
51249;BME280;39642;47.556;18.728;2023-05-07T04:23:46;99650.03;;;20.59;48.97
51249;BME280;39642;47.556;18.728;2023-05-07T04:26:12;99658.81;;;20.59;48.94
51249;BME280;39642;47.556;18.728;2023-05-07T04:28:39;99658.81;;;20.59;48.93
51249;BME280;39642;47.556;18.728;2023-05-07T04:31:05;99664.03;;;20.61;48.93
51249;BME280;39642;47.556;18.728;2023-05-07T04:33:31;99663.28;;;20.59;48.92
51249;BME280;39642;47.556;18.728;2023-05-07T04:35:58;99667.59;;;20.60;48.87
51249;BME280;39642;47.556;18.728;2023-05-07T04:38:29;99664.03;;;20.61;48.96
51249;BME280;39642;47.556;18.728;2023-05-07T04:40:55;99667.59;;;20.60;48.94
51249;BME280;39642;47.556;18.728;2023-05-07T04:43:22;99673.75;;;20.61;48.96
51249;BME280;39642;47.556;18.728;2023-05-07T04:45:50;99679.91;;;20.61;48.88
51249;BME280;39642;47.556;18.728;2023-05-07T04:48:16;99681.59;;;20.62;48.90
51249;BME280;39642;47.556;18.728;2023-05-07T04:50:47;99679.91;;;20.61;49.01
51249;BME280;39642;47.556;18.728;2023-05-07T04:53:13;99681.59;;;20.62;48.95
51249;BME280;39642;47.556;18.728;2023-05-07T04:55:39;99684.22;;;20.62;48.85
51249;BME280;39642;47.556;18.728;2023-05-07T04:58:05;99678.00;;;20.63;48.84
51249;BME280;39642;47.556;18.728;2023-05-07T05:00:30;99677.16;;;20.63;48.91
51249;BME280;39642;47.556;18.728;2023-05-07T05:02:56;99681.50;;;20.64;48.91
51249;BME280;39642;47.556;18.728;2023-05-07T05:05:22;99680.66;;;20.63;48.98
51249;BME280;39642;47.556;18.728;2023-05-07T05:07:48;99677.06;;;20.64;48.76
51249;BME280;39642;47.556;18.728;2023-05-07T05:10:14;99674.41;;;20.64;48.85
51249;BME280;39642;47.556;18.728;2023-05-07T05:12:40;99678.84;;;20.64;48.88
51249;BME280;39642;47.556;18.728;2023-05-07T05:15:06;99675.38;;;20.63;48.82
51249;BME280;39642;47.556;18.728;2023-05-07T05:17:32;99682.34;;;20.64;48.83
51249;BME280;39642;47.556;18.728;2023-05-07T05:20:00;99677.06;;;20.64;48.97
51249;BME280;39642;47.556;18.728;2023-05-07T05:22:26;99690.28;;;20.64;49.04
51249;BME280;39642;47.556;18.728;2023-05-07T05:24:52;99685.84;;;20.65;48.90
51249;BME280;39642;47.556;18.728;2023-05-07T05:27:18;99695.56;;;20.64;49.01
51249;BME280;39642;47.556;18.728;2023-05-07T05:29:44;99685.00;;;20.64;48.95
51249;BME280;39642;47.556;18.728;2023-05-07T05:32:10;99683.19;;;20.65;49.10
51249;BME280;39642;47.556;18.728;2023-05-07T05:34:36;99667.31;;;20.65;49.04
51249;BME280;39642;47.556;18.728;2023-05-07T05:37:01;99669.03;;;20.66;49.02
51249;BME280;39642;47.556;18.728;2023-05-07T05:39:28;99670.84;;;20.65;49.31
51249;BME280;39642;47.556;18.728;2023-05-07T05:41:53;99659.38;;;20.65;49.86
51249;BME280;39642;47.556;18.728;2023-05-07T05:44:19;99657.59;;;20.65;50.01
51249;BME280;39642;47.556;18.728;2023-05-07T05:46:45;99661.09;;;20.66;49.90
51249;BME280;39642;47.556;18.728;2023-05-07T05:49:11;99658.44;;;20.66;49.85
51249;BME280;39642;47.556;18.728;2023-05-07T05:51:37;99660.13;;;20.67;49.93
51249;BME280;39642;47.556;18.728;2023-05-07T05:54:03;99666.31;;;20.67;49.87
51249;BME280;39642;47.556;18.728;2023-05-07T05:56:30;99671.59;;;20.67;49.83
51249;BME280;39642;47.556;18.728;2023-05-07T05:58:56;99682.06;;;20.69;49.83
51249;BME280;39642;47.556;18.728;2023-05-07T06:01:21;99669.72;;;20.69;49.76
51249;BME280;39642;47.556;18.728;2023-05-07T06:03:47;99673.19;;;20.70;49.75
51249;BME280;39642;47.556;18.728;2023-05-07T06:06:13;99674.03;;;20.70;49.66
51249;BME280;39642;47.556;18.728;2023-05-07T06:08:40;99666.09;;;20.70;49.66
51249;BME280;39642;47.556;18.728;2023-05-07T06:11:06;99667.78;;;20.71;49.56
51249;BME280;39642;47.556;18.728;2023-05-07T06:13:32;99666.88;;;20.72;49.80
51249;BME280;39642;47.556;18.728;2023-05-07T06:15:58;99664.97;;;20.74;49.40
51249;BME280;39642;47.556;18.728;2023-05-07T06:18:24;99667.63;;;20.74;49.32
51249;BME280;39642;47.556;18.728;2023-05-07T06:20:52;99665.75;;;20.76;49.33
51249;BME280;39642;47.556;18.728;2023-05-07T06:23:18;99665.75;;;20.76;49.34
51249;BME280;39642;47.556;18.728;2023-05-07T06:25:50;99667.44;;;20.77;49.25
51249;BME280;39642;47.556;18.728;2023-05-07T06:28:16;99672.63;;;20.79;49.38
51249;BME280;39642;47.556;18.728;2023-05-07T06:30:42;99672.63;;;20.79;49.43
51249;BME280;39642;47.556;18.728;2023-05-07T06:33:08;99671.78;;;20.78;49.51
51249;BME280;39642;47.556;18.728;2023-05-07T06:35:34;99672.72;;;20.77;49.50
51249;BME280;39642;47.556;18.728;2023-05-07T06:38:00;99675.38;;;20.77;49.60
51249;BME280;39642;47.556;18.728;2023-05-07T06:40:26;99678.84;;;20.78;49.65
51249;BME280;39642;47.556;18.728;2023-05-07T06:42:52;99677.16;;;20.77;49.68
51249;BME280;39642;47.556;18.728;2023-05-07T06:45:19;99678.97;;;20.76;49.70
51249;BME280;39642;47.556;18.728;2023-05-07T06:47:45;99689.56;;;20.76;49.70
51249;BME280;39642;47.556;18.728;2023-05-07T06:50:11;99683.31;;;20.77;49.77
51249;BME280;39642;47.556;18.728;2023-05-07T06:52:37;99678.09;;;20.76;49.85
51249;BME280;39642;47.556;18.728;2023-05-07T06:55:03;99689.56;;;20.76;49.86
51249;BME280;39642;47.556;18.728;2023-05-07T06:57:29;99681.63;;;20.76;49.84
51249;BME280;39642;47.556;18.728;2023-05-07T06:59:55;99682.53;;;20.75;49.65
51249;BME280;39642;47.556;18.728;2023-05-07T07:02:21;99694.84;;;20.76;49.82
51249;BME280;39642;47.556;18.728;2023-05-07T07:04:47;99693.97;;;20.76;49.08
51249;BME280;39642;47.556;18.728;2023-05-07T07:07:13;99695.78;;;20.75;49.76
51249;BME280;39642;47.556;18.728;2023-05-07T07:09:39;99701.06;;;20.75;49.68
51249;BME280;39642;47.556;18.728;2023-05-07T07:12:05;99706.34;;;20.75;49.85
51249;BME280;39642;47.556;18.728;2023-05-07T07:14:31;99702.78;;;20.76;49.87
51249;BME280;39642;47.556;18.728;2023-05-07T07:16:57;99711.56;;;20.77;49.79
51249;BME280;39642;47.556;18.728;2023-05-07T07:19:22;99710.72;;;20.76;49.56
51249;BME280;39642;47.556;18.728;2023-05-07T07:21:48;99723.94;;;20.76;49.34
51249;BME280;39642;47.556;18.728;2023-05-07T07:24:14;99729.25;;;20.76;49.34
51249;BME280;39642;47.556;18.728;2023-05-07T07:26:44;99726.59;;;20.76;49.13
51249;BME280;39642;47.556;18.728;2023-05-07T07:29:10;99725.63;;;20.77;48.99
51249;BME280;39642;47.556;18.728;2023-05-07T07:31:36;99725.72;;;20.76;49.04
51249;BME280;39642;47.556;18.728;2023-05-07T07:34:02;99722.22;;;20.75;49.17
51249;BME280;39642;47.556;18.728;2023-05-07T07:36:28;99725.72;;;20.76;49.09
51249;BME280;39642;47.556;18.728;2023-05-07T07:38:54;99729.25;;;20.76;49.05
51249;BME280;39642;47.556;18.728;2023-05-07T07:41:20;99722.16;;;20.77;49.16
51249;BME280;39642;47.556;18.728;2023-05-07T07:43:45;99723.94;;;20.76;49.20
51249;BME280;39642;47.556;18.728;2023-05-07T07:46:14;99728.38;;;20.76;49.13
51249;BME280;39642;47.556;18.728;2023-05-07T07:48:40;99722.22;;;20.75;49.02
51249;BME280;39642;47.556;18.728;2023-05-07T07:51:06;99713.44;;;20.75;49.23
51249;BME280;39642;47.556;18.728;2023-05-07T07:53:32;99714.28;;;20.75;49.16
51249;BME280;39642;47.556;18.728;2023-05-07T07:55:57;99716.94;;;20.75;49.11
51249;BME280;39642;47.556;18.728;2023-05-07T07:58:23;99719.59;;;20.75;49.08
51249;BME280;39642;47.556;18.728;2023-05-07T08:00:50;99716.94;;;20.75;49.21
51249;BME280;39642;47.556;18.728;2023-05-07T08:03:16;99716.94;;;20.75;49.15
51249;BME280;39642;47.556;18.728;2023-05-07T08:05:42;99728.28;;;20.77;48.96
51249;BME280;39642;47.556;18.728;2023-05-07T08:08:09;99726.59;;;20.76;49.07
51249;BME280;39642;47.556;18.728;2023-05-07T08:10:35;99728.28;;;20.77;49.16
51249;BME280;39642;47.556;18.728;2023-05-07T08:13:03;99728.28;;;20.77;49.17
51249;BME280;39642;47.556;18.728;2023-05-07T08:15:30;99722.16;;;20.77;49.26
51249;BME280;39642;47.556;18.728;2023-05-07T08:17:58;99723.84;;;20.78;49.59
51249;BME280;39642;47.556;18.728;2023-05-07T08:20:26;99724.72;;;20.78;49.62
51249;BME280;39642;47.556;18.728;2023-05-07T08:22:51;99721.09;;;20.79;49.81
51249;BME280;39642;47.556;18.728;2023-05-07T08:25:17;99724.72;;;20.78;49.94
51249;BME280;39642;47.556;18.728;2023-05-07T08:27:43;99724.72;;;20.78;50.08
51249;BME280;39642;47.556;18.728;2023-05-07T08:30:11;99724.72;;;20.78;50.10
51249;BME280;39642;47.556;18.728;2023-05-07T08:32:37;99721.19;;;20.78;50.33
51249;BME280;39642;47.556;18.728;2023-05-07T08:35:03;99732.66;;;20.78;50.32
51249;BME280;39642;47.556;18.728;2023-05-07T08:37:28;99723.84;;;20.78;51.22
51249;BME280;39642;47.556;18.728;2023-05-07T08:39:54;99731.69;;;20.79;52.61
51249;BME280;39642;47.556;18.728;2023-05-07T08:42:23;99731.78;;;20.78;52.28
51249;BME280;39642;47.556;18.728;2023-05-07T08:44:51;99733.50;;;20.79;52.52
51249;BME280;39642;47.556;18.728;2023-05-07T08:47:19;99737.84;;;20.80;52.81
51249;BME280;39642;47.556;18.728;2023-05-07T08:49:45;99743.13;;;20.80;52.01
51249;BME280;39642;47.556;18.728;2023-05-07T08:52:12;99742.19;;;20.81;51.70
51249;BME280;39642;47.556;18.728;2023-05-07T08:54:38;99739.44;;;20.83;51.94
51249;BME280;39642;47.556;18.728;2023-05-07T08:57:05;99740.31;;;20.83;52.13
51249;BME280;39642;47.556;18.728;2023-05-07T08:59:31;99736.72;;;20.84;52.12
51249;BME280;39642;47.556;18.728;2023-05-07T09:01:56;99738.44;;;20.85;51.42
51249;BME280;39642;47.556;18.728;2023-05-07T09:04:22;99732.19;;;20.86;51.59
51249;BME280;39642;47.556;18.728;2023-05-07T09:06:48;99733.87;;;20.87;51.13
51249;BME280;39642;47.556;18.728;2023-05-07T09:09:17;99732.09;;;20.88;51.04
51249;BME280;39642;47.556;18.728;2023-05-07T09:11:46;99735.59;;;20.88;51.48
51249;BME280;39642;47.556;18.728;2023-05-07T09:14:12;99743.53;;;20.88;50.65
51249;BME280;39642;47.556;18.728;2023-05-07T09:16:38;99741.72;;;20.89;50.85
51249;BME280;39642;47.556;18.728;2023-05-07T09:19:04;99736.44;;;20.89;51.41
51249;BME280;39642;47.556;18.728;2023-05-07T09:21:30;99743.44;;;20.90;51.19
51249;BME280;39642;47.556;18.728;2023-05-07T09:23:57;99742.56;;;20.89;51.37
51249;BME280;39642;47.556;18.728;2023-05-07T09:26:23;99746.16;;;20.88;51.34
51249;BME280;39642;47.556;18.728;2023-05-07T09:28:50;99744.38;;;20.89;51.18
51249;BME280;39642;47.556;18.728;2023-05-07T09:31:16;99743.53;;;20.88;50.53
51249;BME280;39642;47.556;18.728;2023-05-07T09:33:42;99741.72;;;20.89;51.11
51249;BME280;39642;47.556;18.728;2023-05-07T09:36:09;99741.72;;;20.89;51.37
51249;BME280;39642;47.556;18.728;2023-05-07T09:38:36;99743.53;;;20.88;50.70
51249;BME280;39642;47.556;18.728;2023-05-07T09:41:09;99749.66;;;20.89;50.97
51249;BME280;39642;47.556;18.728;2023-05-07T09:43:37;99746.16;;;20.88;51.05
51249;BME280;39642;47.556;18.728;2023-05-07T09:46:06;99748.72;;;20.90;51.05
51249;BME280;39642;47.556;18.728;2023-05-07T09:48:38;99747.00;;;20.89;50.87
51249;BME280;39642;47.556;18.728;2023-05-07T09:51:15;99754.03;;;20.90;50.15
51249;BME280;39642;47.556;18.728;2023-05-07T09:53:43;99755.91;;;20.88;50.05
51249;BME280;39642;47.556;18.728;2023-05-07T09:56:09;99751.38;;;20.90;50.04
51249;BME280;39642;47.556;18.728;2023-05-07T09:58:37;99747.84;;;20.89;50.04
51249;BME280;39642;47.556;18.728;2023-05-07T10:01:05;99757.59;;;20.89;50.17
51249;BME280;39642;47.556;18.728;2023-05-07T10:03:33;99747.00;;;20.89;50.07
51249;BME280;39642;47.556;18.728;2023-05-07T10:06:01;99754.03;;;20.90;50.63
51249;BME280;39642;47.556;18.728;2023-05-07T10:08:30;99753.16;;;20.89;50.21
51249;BME280;39642;47.556;18.728;2023-05-07T10:10:56;99756.69;;;20.90;50.30
51249;BME280;39642;47.556;18.728;2023-05-07T10:13:22;99748.72;;;20.90;49.93
51249;BME280;39642;47.556;18.728;2023-05-07T10:15:49;99750.41;;;20.91;50.10
51249;BME280;39642;47.556;18.728;2023-05-07T10:18:16;99746.94;;;20.90;50.04
51249;BME280;39642;47.556;18.728;2023-05-07T10:20:45;99753.91;;;20.91;49.95
51249;BME280;39642;47.556;18.728;2023-05-07T10:23:13;99746.84;;;20.92;50.02
51249;BME280;39642;47.556;18.728;2023-05-07T10:25:40;99749.50;;;20.92;50.10
51249;BME280;39642;47.556;18.728;2023-05-07T10:28:08;99744.19;;;20.92;50.77
51249;BME280;39642;47.556;18.728;2023-05-07T10:30:58;99746.84;;;20.92;49.98
51249;BME280;39642;47.556;18.728;2023-05-07T10:33:28;99743.31;;;20.91;50.52
51249;BME280;39642;47.556;18.728;2023-05-07T10:35:58;99745.03;;;20.92;50.20
51249;BME280;39642;47.556;18.728;2023-05-07T10:38:26;99746.84;;;20.92;50.55
51249;BME280;39642;47.556;18.728;2023-05-07T10:40:53;99740.59;;;20.93;50.55
51249;BME280;39642;47.556;18.728;2023-05-07T10:43:19;99743.25;;;20.93;50.52
51249;BME280;39642;47.556;18.728;2023-05-07T10:46:11;99742.41;;;20.92;50.04
51249;BME280;39642;47.556;18.728;2023-05-07T10:51:27;99738.72;;;20.95;50.33
51249;BME280;39642;47.556;18.728;2023-05-07T10:56:38;99736.06;;;20.95;50.39
51249;BME280;39642;47.556;18.728;2023-05-07T10:59:30;99736.06;;;20.95;50.67
51249;BME280;39642;47.556;18.728;2023-05-07T11:02:00;99733.41;;;20.95;50.22
51249;BME280;39642;47.556;18.728;2023-05-07T11:04:28;99730.78;;;20.95;50.44
51249;BME280;39642;47.556;18.728;2023-05-07T11:07:21;99726.31;;;20.95;50.05
51249;BME280;39642;47.556;18.728;2023-05-07T11:15:06;99730.69;;;20.96;49.91
51249;BME280;39642;47.556;18.728;2023-05-07T11:17:33;99729.72;;;20.97;50.20
51249;BME280;39642;47.556;18.728;2023-05-07T11:20:01;99729.72;;;20.97;50.29
51249;BME280;39642;47.556;18.728;2023-05-07T11:24:57;99734.19;;;20.97;49.96
51249;BME280;39642;47.556;18.728;2023-05-07T11:27:26;99720.84;;;20.98;49.26
51249;BME280;39642;47.556;18.728;2023-05-07T11:29:52;99727.00;;;20.99;49.86
51249;BME280;39642;47.556;18.728;2023-05-07T11:32:31;99732.28;;;20.99;49.63
51249;BME280;39642;47.556;18.728;2023-05-07T11:34:59;99727.91;;;20.98;49.70
51249;BME280;39642;47.556;18.728;2023-05-07T11:37:27;99725.28;;;20.98;49.97
51249;BME280;39642;47.556;18.728;2023-05-07T11:40:07;99727.00;;;20.99;49.59
51249;BME280;39642;47.556;18.728;2023-05-07T11:42:35;99730.56;;;20.98;49.57
51249;BME280;39642;47.556;18.728;2023-05-07T11:45:01;99730.56;;;20.98;49.74
51249;BME280;39642;47.556;18.728;2023-05-07T11:47:30;99725.28;;;20.98;49.57
51249;BME280;39642;47.556;18.728;2023-05-07T11:49:56;99726.22;;;20.97;49.50
51249;BME280;39642;47.556;18.728;2023-05-07T11:52:27;99721.88;;;20.96;49.31
51249;BME280;39642;47.556;18.728;2023-05-07T11:54:55;99719.22;;;20.96;49.20
51249;BME280;39642;47.556;18.728;2023-05-07T11:57:24;99725.47;;;20.95;49.24
51249;BME280;39642;47.556;18.728;2023-05-07T11:59:58;99718.37;;;20.95;49.04
51249;BME280;39642;47.556;18.728;2023-05-07T12:02:24;99713.94;;;20.96;49.16
51249;BME280;39642;47.556;18.728;2023-05-07T12:04:54;99711.28;;;20.96;49.34
51249;BME280;39642;47.556;18.728;2023-05-07T12:07:20;99710.34;;;20.97;49.12
51249;BME280;39642;47.556;18.728;2023-05-07T12:09:47;99714.69;;;20.98;49.16
51249;BME280;39642;47.556;18.728;2023-05-07T12:12:13;99717.44;;;20.96;48.93
51249;BME280;39642;47.556;18.728;2023-05-07T12:14:44;99724.50;;;20.96;49.04
51249;BME280;39642;47.556;18.728;2023-05-07T12:17:11;99719.22;;;20.96;48.97
51249;BME280;39642;47.556;18.728;2023-05-07T12:19:40;99720.19;;;20.95;48.91
51249;BME280;39642;47.556;18.728;2023-05-07T12:22:09;99718.47;;;20.94;48.96
51249;BME280;39642;47.556;18.728;2023-05-07T12:24:46;99712.31;;;20.93;49.00
51249;BME280;39642;47.556;18.728;2023-05-07T12:27:13;99718.47;;;20.94;48.77
51249;BME280;39642;47.556;18.728;2023-05-07T12:29:39;99713.16;;;20.94;48.84
51249;BME280;39642;47.556;18.728;2023-05-07T12:32:06;99707.88;;;20.94;48.75
51249;BME280;39642;47.556;18.728;2023-05-07T12:34:32;99706.94;;;20.95;48.67
51249;BME280;39642;47.556;18.728;2023-05-07T12:37:02;99703.34;;;20.96;48.72
51249;BME280;39642;47.556;18.728;2023-05-07T12:39:28;99705.97;;;20.96;48.78
51249;BME280;39642;47.556;18.728;2023-05-07T12:41:55;99701.66;;;20.95;48.90
51249;BME280;39642;47.556;18.728;2023-05-07T12:44:22;99719.22;;;20.96;48.90
51249;BME280;39642;47.556;18.728;2023-05-07T12:46:50;99712.25;;;20.95;48.65
51249;BME280;39642;47.556;18.728;2023-05-07T12:49:16;99706.09;;;20.94;48.84
51249;BME280;39642;47.556;18.728;2023-05-07T12:51:43;99705.22;;;20.94;48.76
51249;BME280;39642;47.556;18.728;2023-05-07T12:54:09;99702.56;;;20.94;48.77
51249;BME280;39642;47.556;18.728;2023-05-07T12:56:35;99701.66;;;20.95;48.59
51249;BME280;39642;47.556;18.728;2023-05-07T12:59:02;99692.88;;;20.94;48.89
51249;BME280;39642;47.556;18.728;2023-05-07T13:01:30;99695.41;;;20.96;48.63
51249;BME280;39642;47.556;18.728;2023-05-07T13:04:00;99690.09;;;20.96;48.73